PABI/DJN METAR and TAF weather

Enter ICAO airport designator
Station Type Date Time Source
PABI METAR 2021/09/27 05:53 UTC NOAA

PABI 270553Z AUTO 12003KT 10SM OVC031 M03/M06 A2988 RMK AO2 SLP145 T10281061 11006 21028 58005 TSNO $


Station Type Date Time Source
PABI Decoded METAR 2021/09/27 05:53 UTC NOAA

ALLEN ARMY AIRFIELD, AK, United States (PABI) 64-00N 145-43W 391M
Sep 27, 2021 - 01:53 AM EDT / 2021.09.27 0553 UTC
Wind: from the ESE (120 degrees) at 3 MPH (3 KT):0
Visibility: 10 mile(s):0
Sky conditions: overcast
Temperature: 27.0 F (-2.8 C)
Dew Point: 21.0 F (-6.1 C)
Relative Humidity: 77%
Pressure (altimeter): 29.88 in. Hg (1011 hPa)
Pressure tendency: 0.01 inches (0.5 hPa) lower than three hours ago
ob: PABI 270553Z AUTO 12003KT 10SM OVC031 M03/M06 A2988 RMK AO2 SLP145 T10281061 11006 21028 58005 TSNO
cycle: 6

Station Type Date Time Source
PABI TAF 2021/09/25 08:49 UTC NOAA

TAF
AMD PABI 250830Z 2508/2612 VRB06KT 9999 FEW007 SCT020 BKN060 620604 QNH2966INS
BECMG 2510/2511 VRB06KT 4800 -SN BKN010 620105 QNH2970INS
TEMPO 2522/2601 9999 SCT007 TX00/2600Z TNM04/2516Z LAST NO
AMDS AFT 2508 NEXT 2714 FOR MIL USE ONLY

Example: see airport list